Terminal Aerodrome Forecast
Issued by NWS Tiyan, Guam

Home | Current Version | Previous Version | Text Only | Print | Product List | Glossary On
Versions: 1 2 3 4 5 6 7 8 9 10 11 12 13 14 15 16 17 18 19 20 21 22 23 24 25 26 27 28 29 30 31 32 33 34 35 36 37 38 39 40
000
FTPQ31 PGUM 311100
TAFPQ
TAF
PGUM 311120Z 3112/0118 VRB06KT P6SM VCSH FEW016 SCT040 BKN100
      TEMPO 3112/3114 20012KT 5SM SHRA SCT014 BKN025
     FM010000 18008KT P6SM VCSH FEW016 SCT050 BKN120=

USA.gov is the U.S. government's official web portal to all federal, state and local government web resources and services.